sensor_id;sensor_type;location;lat;lon;timestamp;P1;durP1;ratioP1;P2;durP2;ratioP2
75512;SDS011;64090;49.770;18.760;2023-02-18T00:00:43;3.80;;;2.30;;
75512;SDS011;64090;49.770;18.760;2023-02-18T00:04:08;3.20;;;1.80;;
75512;SDS011;64090;49.770;18.760;2023-02-18T00:07:36;4.30;;;2.40;;
75512;SDS011;64090;49.770;18.760;2023-02-18T00:10:59;4.00;;;2.70;;
75512;SDS011;64090;49.770;18.760;2023-02-18T00:14:25;3.00;;;2.00;;
75512;SDS011;64090;49.770;18.760;2023-02-18T00:17:55;3.90;;;2.20;;
75512;SDS011;64090;49.770;18.760;2023-02-18T00:21:26;3.40;;;1.70;;
75512;SDS011;64090;49.770;18.760;2023-02-18T00:24:52;2.30;;;2.00;;
75512;SDS011;64090;49.770;18.760;2023-02-18T00:28:15;3.00;;;2.10;;
75512;SDS011;64090;49.770;18.760;2023-02-18T00:31:58;4.00;;;2.90;;
75512;SDS011;64090;49.770;18.760;2023-02-18T00:35:19;4.20;;;3.10;;
75512;SDS011;64090;49.770;18.760;2023-02-18T00:38:49;4.30;;;2.80;;
75512;SDS011;64090;49.770;18.760;2023-02-18T00:42:16;2.90;;;1.90;;
75512;SDS011;64090;49.770;18.760;2023-02-18T00:45:41;2.90;;;2.10;;
75512;SDS011;64090;49.770;18.760;2023-02-18T00:49:04;2.60;;;1.70;;
75512;SDS011;64090;49.770;18.760;2023-02-18T00:52:27;3.10;;;1.90;;
75512;SDS011;64090;49.770;18.760;2023-02-18T00:55:52;3.50;;;2.10;;
75512;SDS011;64090;49.770;18.760;2023-02-18T00:59:16;3.20;;;2.20;;
75512;SDS011;64090;49.770;18.760;2023-02-18T01:02:39;3.50;;;2.00;;
75512;SDS011;64090;49.770;18.760;2023-02-18T01:06:04;3.10;;;2.00;;
75512;SDS011;64090;49.770;18.760;2023-02-18T01:09:41;4.20;;;2.20;;
75512;SDS011;64090;49.770;18.760;2023-02-18T01:13:06;2.80;;;1.10;;
75512;SDS011;64090;49.770;18.760;2023-02-18T01:16:31;2.20;;;1.30;;
75512;SDS011;64090;49.770;18.760;2023-02-18T01:19:58;2.60;;;1.70;;
75512;SDS011;64090;49.770;18.760;2023-02-18T01:23:21;2.30;;;1.80;;
75512;SDS011;64090;49.770;18.760;2023-02-18T01:26:44;3.10;;;2.10;;
75512;SDS011;64090;49.770;18.760;2023-02-18T01:30:08;2.70;;;1.60;;
75512;SDS011;64090;49.770;18.760;2023-02-18T01:33:32;2.70;;;1.60;;
75512;SDS011;64090;49.770;18.760;2023-02-18T01:36:57;2.60;;;1.70;;
75512;SDS011;64090;49.770;18.760;2023-02-18T01:40:24;3.00;;;1.90;;
75512;SDS011;64090;49.770;18.760;2023-02-18T01:43:36;3.70;;;1.90;;
75512;SDS011;64090;49.770;18.760;2023-02-18T01:47:17;2.70;;;1.50;;
75512;SDS011;64090;49.770;18.760;2023-02-18T01:50:39;4.60;;;2.00;;
75512;SDS011;64090;49.770;18.760;2023-02-18T01:54:32;2.70;;;1.90;;
75512;SDS011;64090;49.770;18.760;2023-02-18T01:58:11;2.50;;;1.50;;
75512;SDS011;64090;49.770;18.760;2023-02-18T02:01:38;4.30;;;2.00;;
75512;SDS011;64090;49.770;18.760;2023-02-18T02:05:04;2.30;;;1.40;;
75512;SDS011;64090;49.770;18.760;2023-02-18T02:08:32;3.80;;;2.10;;
75512;SDS011;64090;49.770;18.760;2023-02-18T02:25:13;2.90;;;1.40;;
75512;SDS011;64090;49.770;18.760;2023-02-18T02:39:07;2.70;;;1.60;;
75512;SDS011;64090;49.770;18.760;2023-02-18T02:42:24;4.30;;;2.10;;
75512;SDS011;64090;49.770;18.760;2023-02-18T02:49:08;3.50;;;2.10;;
75512;SDS011;64090;49.770;18.760;2023-02-18T02:52:29;4.10;;;2.80;;
75512;SDS011;64090;49.770;18.760;2023-02-18T02:55:35;4.60;;;2.50;;
75512;SDS011;64090;49.770;18.760;2023-02-18T02:58:38;3.90;;;2.80;;
75512;SDS011;64090;49.770;18.760;2023-02-18T03:11:49;5.70;;;3.30;;
75512;SDS011;64090;49.770;18.760;2023-02-18T03:18:35;3.20;;;2.40;;
75512;SDS011;64090;49.770;18.760;2023-02-18T03:21:44;5.00;;;3.10;;
75512;SDS011;64090;49.770;18.760;2023-02-18T03:24:53;4.10;;;2.80;;
75512;SDS011;64090;49.770;18.760;2023-02-18T03:28:00;3.70;;;2.10;;
75512;SDS011;64090;49.770;18.760;2023-02-18T03:31:11;2.30;;;1.50;;
75512;SDS011;64090;49.770;18.760;2023-02-18T03:34:23;4.00;;;3.30;;
75512;SDS011;64090;49.770;18.760;2023-02-18T03:37:30;6.00;;;2.60;;
75512;SDS011;64090;49.770;18.760;2023-02-18T03:40:38;4.70;;;2.90;;
75512;SDS011;64090;49.770;18.760;2023-02-18T03:43:48;4.40;;;3.10;;
75512;SDS011;64090;49.770;18.760;2023-02-18T03:46:52;5.30;;;3.20;;
75512;SDS011;64090;49.770;18.760;2023-02-18T03:49:55;5.00;;;3.30;;
75512;SDS011;64090;49.770;18.760;2023-02-18T03:52:58;3.60;;;2.00;;
75512;SDS011;64090;49.770;18.760;2023-02-18T03:56:01;4.40;;;2.90;;
75512;SDS011;64090;49.770;18.760;2023-02-18T03:59:05;5.20;;;2.80;;
75512;SDS011;64090;49.770;18.760;2023-02-18T04:02:08;4.20;;;3.00;;
75512;SDS011;64090;49.770;18.760;2023-02-18T04:05:11;3.80;;;2.10;;
75512;SDS011;64090;49.770;18.760;2023-02-18T04:08:14;2.80;;;2.10;;
75512;SDS011;64090;49.770;18.760;2023-02-18T04:11:17;4.80;;;2.70;;
75512;SDS011;64090;49.770;18.760;2023-02-18T04:14:20;4.10;;;2.50;;
75512;SDS011;64090;49.770;18.760;2023-02-18T04:17:23;4.10;;;2.80;;
75512;SDS011;64090;49.770;18.760;2023-02-18T04:20:25;4.40;;;3.00;;
75512;SDS011;64090;49.770;18.760;2023-02-18T04:23:28;4.30;;;2.70;;
75512;SDS011;64090;49.770;18.760;2023-02-18T04:26:31;4.80;;;2.70;;
75512;SDS011;64090;49.770;18.760;2023-02-18T04:29:35;3.70;;;2.10;;
75512;SDS011;64090;49.770;18.760;2023-02-18T04:32:38;3.60;;;2.80;;
75512;SDS011;64090;49.770;18.760;2023-02-18T04:35:41;3.70;;;1.60;;
75512;SDS011;64090;49.770;18.760;2023-02-18T04:38:44;4.20;;;2.50;;
75512;SDS011;64090;49.770;18.760;2023-02-18T04:41:47;2.90;;;2.10;;
75512;SDS011;64090;49.770;18.760;2023-02-18T04:44:50;4.70;;;2.40;;
75512;SDS011;64090;49.770;18.760;2023-02-18T04:47:53;3.90;;;2.40;;
75512;SDS011;64090;49.770;18.760;2023-02-18T04:50:56;4.60;;;2.70;;
75512;SDS011;64090;49.770;18.760;2023-02-18T04:53:59;2.00;;;1.80;;
75512;SDS011;64090;49.770;18.760;2023-02-18T04:57:02;3.20;;;1.80;;
75512;SDS011;64090;49.770;18.760;2023-02-18T05:00:06;2.80;;;1.70;;
75512;SDS011;64090;49.770;18.760;2023-02-18T05:03:10;4.30;;;2.20;;
75512;SDS011;64090;49.770;18.760;2023-02-18T05:06:13;3.20;;;2.00;;
75512;SDS011;64090;49.770;18.760;2023-02-18T05:09:16;3.40;;;2.20;;
75512;SDS011;64090;49.770;18.760;2023-02-18T05:12:19;3.20;;;2.10;;
75512;SDS011;64090;49.770;18.760;2023-02-18T05:15:22;3.50;;;2.00;;
75512;SDS011;64090;49.770;18.760;2023-02-18T05:18:25;5.00;;;2.50;;
75512;SDS011;64090;49.770;18.760;2023-02-18T05:21:28;4.00;;;1.90;;
75512;SDS011;64090;49.770;18.760;2023-02-18T05:24:31;3.40;;;2.10;;
75512;SDS011;64090;49.770;18.760;2023-02-18T05:27:34;2.40;;;1.20;;
75512;SDS011;64090;49.770;18.760;2023-02-18T05:30:37;3.20;;;2.40;;
75512;SDS011;64090;49.770;18.760;2023-02-18T05:33:40;2.70;;;2.00;;
75512;SDS011;64090;49.770;18.760;2023-02-18T05:36:43;3.30;;;1.90;;
75512;SDS011;64090;49.770;18.760;2023-02-18T05:39:46;4.30;;;2.60;;
75512;SDS011;64090;49.770;18.760;2023-02-18T05:42:49;3.60;;;2.30;;
75512;SDS011;64090;49.770;18.760;2023-02-18T05:45:52;5.10;;;2.80;;
75512;SDS011;64090;49.770;18.760;2023-02-18T05:48:55;3.40;;;1.90;;
75512;SDS011;64090;49.770;18.760;2023-02-18T05:51:58;3.70;;;3.10;;
75512;SDS011;64090;49.770;18.760;2023-02-18T05:55:02;3.60;;;1.70;;
75512;SDS011;64090;49.770;18.760;2023-02-18T05:58:05;2.60;;;1.30;;
75512;SDS011;64090;49.770;18.760;2023-02-18T06:01:08;4.70;;;3.10;;
75512;SDS011;64090;49.770;18.760;2023-02-18T06:04:11;5.10;;;2.70;;
75512;SDS011;64090;49.770;18.760;2023-02-18T06:07:15;4.30;;;2.30;;
75512;SDS011;64090;49.770;18.760;2023-02-18T06:10:17;3.50;;;2.40;;
75512;SDS011;64090;49.770;18.760;2023-02-18T06:13:20;4.40;;;2.60;;
75512;SDS011;64090;49.770;18.760;2023-02-18T06:16:23;5.30;;;3.00;;
75512;SDS011;64090;49.770;18.760;2023-02-18T06:19:27;2.90;;;1.20;;
75512;SDS011;64090;49.770;18.760;2023-02-18T06:22:30;4.60;;;2.40;;
75512;SDS011;64090;49.770;18.760;2023-02-18T06:25:33;5.20;;;2.90;;
75512;SDS011;64090;49.770;18.760;2023-02-18T06:28:36;4.60;;;2.70;;
75512;SDS011;64090;49.770;18.760;2023-02-18T06:31:39;4.80;;;2.90;;
75512;SDS011;64090;49.770;18.760;2023-02-18T06:34:42;6.10;;;3.50;;
75512;SDS011;64090;49.770;18.760;2023-02-18T06:37:45;3.10;;;1.80;;
75512;SDS011;64090;49.770;18.760;2023-02-18T06:40:49;4.80;;;3.00;;
75512;SDS011;64090;49.770;18.760;2023-02-18T06:43:52;4.70;;;2.90;;
75512;SDS011;64090;49.770;18.760;2023-02-18T06:46:55;5.00;;;2.90;;
75512;SDS011;64090;49.770;18.760;2023-02-18T06:49:58;4.50;;;3.30;;
75512;SDS011;64090;49.770;18.760;2023-02-18T06:53:01;4.90;;;3.40;;
75512;SDS011;64090;49.770;18.760;2023-02-18T06:56:04;4.20;;;2.80;;
75512;SDS011;64090;49.770;18.760;2023-02-18T06:59:08;5.40;;;3.10;;
75512;SDS011;64090;49.770;18.760;2023-02-18T07:02:14;4.70;;;2.80;;
75512;SDS011;64090;49.770;18.760;2023-02-18T07:05:17;6.80;;;4.50;;
75512;SDS011;64090;49.770;18.760;2023-02-18T07:08:20;6.40;;;4.20;;
75512;SDS011;64090;49.770;18.760;2023-02-18T07:11:23;4.80;;;3.70;;
75512;SDS011;64090;49.770;18.760;2023-02-18T07:14:26;4.80;;;2.50;;
75512;SDS011;64090;49.770;18.760;2023-02-18T07:17:29;6.50;;;4.90;;
75512;SDS011;64090;49.770;18.760;2023-02-18T07:20:32;8.30;;;5.00;;
75512;SDS011;64090;49.770;18.760;2023-02-18T07:23:35;7.20;;;5.20;;
75512;SDS011;64090;49.770;18.760;2023-02-18T07:26:38;7.00;;;5.50;;
75512;SDS011;64090;49.770;18.760;2023-02-18T07:29:41;7.30;;;4.50;;
75512;SDS011;64090;49.770;18.760;2023-02-18T07:32:44;7.10;;;5.50;;
75512;SDS011;64090;49.770;18.760;2023-02-18T07:35:51;6.50;;;4.30;;
75512;SDS011;64090;49.770;18.760;2023-02-18T07:39:01;8.00;;;5.40;;
75512;SDS011;64090;49.770;18.760;2023-02-18T07:42:04;7.90;;;5.10;;
75512;SDS011;64090;49.770;18.760;2023-02-18T07:45:07;7.70;;;5.60;;
75512;SDS011;64090;49.770;18.760;2023-02-18T07:48:11;4.70;;;3.00;;
75512;SDS011;64090;49.770;18.760;2023-02-18T07:51:14;8.10;;;4.60;;
75512;SDS011;64090;49.770;18.760;2023-02-18T07:54:17;9.00;;;5.60;;
75512;SDS011;64090;49.770;18.760;2023-02-18T07:57:20;7.00;;;4.80;;
75512;SDS011;64090;49.770;18.760;2023-02-18T08:00:23;4.90;;;4.00;;
75512;SDS011;64090;49.770;18.760;2023-02-18T08:03:27;7.40;;;5.40;;
75512;SDS011;64090;49.770;18.760;2023-02-18T08:06:35;11.00;;;9.20;;
75512;SDS011;64090;49.770;18.760;2023-02-18T08:09:40;8.40;;;6.50;;
75512;SDS011;64090;49.770;18.760;2023-02-18T08:12:43;8.30;;;5.70;;
75512;SDS011;64090;49.770;18.760;2023-02-18T08:15:47;8.80;;;5.90;;
75512;SDS011;64090;49.770;18.760;2023-02-18T08:18:50;11.60;;;6.60;;
75512;SDS011;64090;49.770;18.760;2023-02-18T08:21:54;10.50;;;7.40;;
75512;SDS011;64090;49.770;18.760;2023-02-18T08:24:57;10.10;;;6.80;;
75512;SDS011;64090;49.770;18.760;2023-02-18T08:28:00;9.90;;;6.60;;
75512;SDS011;64090;49.770;18.760;2023-02-18T08:31:03;9.50;;;6.80;;
75512;SDS011;64090;49.770;18.760;2023-02-18T08:34:07;10.40;;;7.20;;
75512;SDS011;64090;49.770;18.760;2023-02-18T08:37:10;8.00;;;5.30;;
75512;SDS011;64090;49.770;18.760;2023-02-18T08:40:13;8.30;;;4.90;;
75512;SDS011;64090;49.770;18.760;2023-02-18T08:43:17;7.70;;;4.30;;
75512;SDS011;64090;49.770;18.760;2023-02-18T08:46:20;7.50;;;3.70;;
75512;SDS011;64090;49.770;18.760;2023-02-18T08:49:37;6.30;;;4.20;;
75512;SDS011;64090;49.770;18.760;2023-02-18T08:52:40;7.40;;;4.80;;
75512;SDS011;64090;49.770;18.760;2023-02-18T08:55:43;6.90;;;4.20;;
75512;SDS011;64090;49.770;18.760;2023-02-18T08:58:46;6.70;;;3.70;;
75512;SDS011;64090;49.770;18.760;2023-02-18T09:01:49;4.80;;;3.10;;
75512;SDS011;64090;49.770;18.760;2023-02-18T09:04:52;4.60;;;2.60;;
75512;SDS011;64090;49.770;18.760;2023-02-18T09:07:55;4.30;;;2.90;;
75512;SDS011;64090;49.770;18.760;2023-02-18T09:10:59;5.60;;;3.40;;
75512;SDS011;64090;49.770;18.760;2023-02-18T09:14:06;5.70;;;2.90;;
75512;SDS011;64090;49.770;18.760;2023-02-18T09:17:08;4.60;;;3.50;;
75512;SDS011;64090;49.770;18.760;2023-02-18T09:20:11;6.50;;;4.00;;
75512;SDS011;64090;49.770;18.760;2023-02-18T09:23:15;7.60;;;4.10;;
75512;SDS011;64090;49.770;18.760;2023-02-18T09:26:18;7.10;;;3.20;;
75512;SDS011;64090;49.770;18.760;2023-02-18T09:29:24;6.60;;;3.40;;
75512;SDS011;64090;49.770;18.760;2023-02-18T09:32:27;5.20;;;2.60;;
75512;SDS011;64090;49.770;18.760;2023-02-18T09:35:43;4.50;;;3.10;;
75512;SDS011;64090;49.770;18.760;2023-02-18T09:38:47;8.30;;;3.30;;
75512;SDS011;64090;49.770;18.760;2023-02-18T09:42:01;6.80;;;4.00;;
75512;SDS011;64090;49.770;18.760;2023-02-18T09:45:07;7.20;;;4.40;;
75512;SDS011;64090;49.770;18.760;2023-02-18T09:48:14;6.20;;;3.80;;
75512;SDS011;64090;49.770;18.760;2023-02-18T09:51:17;5.80;;;3.40;;
75512;SDS011;64090;49.770;18.760;2023-02-18T09:54:21;4.70;;;2.50;;
75512;SDS011;64090;49.770;18.760;2023-02-18T09:57:26;7.70;;;3.20;;
75512;SDS011;64090;49.770;18.760;2023-02-18T10:00:51;6.70;;;3.70;;
75512;SDS011;64090;49.770;18.760;2023-02-18T10:04:13;4.90;;;1.90;;
75512;SDS011;64090;49.770;18.760;2023-02-18T10:08:14;4.70;;;2.50;;
75512;SDS011;64090;49.770;18.760;2023-02-18T10:11:40;3.90;;;3.20;;
75512;SDS011;64090;49.770;18.760;2023-02-18T10:14:54;4.50;;;2.40;;
75512;SDS011;64090;49.770;18.760;2023-02-18T10:17:58;5.50;;;3.80;;
75512;SDS011;64090;49.770;18.760;2023-02-18T10:21:06;7.20;;;2.70;;
75512;SDS011;64090;49.770;18.760;2023-02-18T10:28:01;7.20;;;2.50;;
75512;SDS011;64090;49.770;18.760;2023-02-18T10:31:06;5.20;;;3.10;;
75512;SDS011;64090;49.770;18.760;2023-02-18T10:37:33;6.10;;;3.60;;
75512;SDS011;64090;49.770;18.760;2023-02-18T10:41:19;6.30;;;4.20;;
75512;SDS011;64090;49.770;18.760;2023-02-18T10:48:03;24.80;;;15.80;;
75512;SDS011;64090;49.770;18.760;2023-02-18T10:51:39;26.30;;;15.30;;
75512;SDS011;64090;49.770;18.760;2023-02-18T10:55:05;22.60;;;14.60;;
75512;SDS011;64090;49.770;18.760;2023-02-18T10:59:22;15.10;;;9.30;;
75512;SDS011;64090;49.770;18.760;2023-02-18T11:10:39;13.20;;;7.50;;
75512;SDS011;64090;49.770;18.760;2023-02-18T11:14:34;10.10;;;4.70;;
75512;SDS011;64090;49.770;18.760;2023-02-18T11:18:24;6.00;;;4.70;;
75512;SDS011;64090;49.770;18.760;2023-02-18T11:21:37;6.90;;;4.70;;
75512;SDS011;64090;49.770;18.760;2023-02-18T11:24:41;6.30;;;3.90;;
75512;SDS011;64090;49.770;18.760;2023-02-18T11:27:50;6.00;;;3.60;;
75512;SDS011;64090;49.770;18.760;2023-02-18T11:30:57;7.80;;;4.00;;
75512;SDS011;64090;49.770;18.760;2023-02-18T11:34:03;6.90;;;4.10;;
75512;SDS011;64090;49.770;18.760;2023-02-18T11:37:11;5.30;;;3.20;;
75512;SDS011;64090;49.770;18.760;2023-02-18T11:40:20;7.90;;;4.90;;
75512;SDS011;64090;49.770;18.760;2023-02-18T11:43:23;6.10;;;3.20;;
75512;SDS011;64090;49.770;18.760;2023-02-18T11:46:31;6.70;;;4.70;;
75512;SDS011;64090;49.770;18.760;2023-02-18T11:49:34;9.10;;;5.60;;
75512;SDS011;64090;49.770;18.760;2023-02-18T11:52:41;5.90;;;3.50;;
75512;SDS011;64090;49.770;18.760;2023-02-18T11:55:52;8.70;;;4.30;;
75512;SDS011;64090;49.770;18.760;2023-02-18T11:58:57;4.60;;;2.50;;
75512;SDS011;64090;49.770;18.760;2023-02-18T12:05:19;6.70;;;2.90;;
75512;SDS011;64090;49.770;18.760;2023-02-18T12:08:24;4.10;;;2.80;;
75512;SDS011;64090;49.770;18.760;2023-02-18T12:11:35;5.80;;;2.50;;
75512;SDS011;64090;49.770;18.760;2023-02-18T12:14:43;5.80;;;3.30;;
75512;SDS011;64090;49.770;18.760;2023-02-18T12:31:45;6.90;;;5.10;;
75512;SDS011;64090;49.770;18.760;2023-02-18T12:38:17;7.10;;;4.70;;
75512;SDS011;64090;49.770;18.760;2023-02-18T12:52:29;7.90;;;5.10;;
75512;SDS011;64090;49.770;18.760;2023-02-18T12:55:54;9.50;;;6.00;;
75512;SDS011;64090;49.770;18.760;2023-02-18T13:12:43;9.70;;;5.00;;
75512;SDS011;64090;49.770;18.760;2023-02-18T13:15:50;7.80;;;5.60;;
75512;SDS011;64090;49.770;18.760;2023-02-18T13:19:00;8.20;;;5.40;;
75512;SDS011;64090;49.770;18.760;2023-02-18T13:22:09;8.90;;;6.40;;
75512;SDS011;64090;49.770;18.760;2023-02-18T13:25:16;8.10;;;5.60;;
75512;SDS011;64090;49.770;18.760;2023-02-18T13:28:25;5.50;;;3.50;;
75512;SDS011;64090;49.770;18.760;2023-02-18T13:38:27;9.60;;;6.10;;
75512;SDS011;64090;49.770;18.760;2023-02-18T13:42:09;7.90;;;5.40;;
75512;SDS011;64090;49.770;18.760;2023-02-18T13:45:24;10.40;;;8.00;;
75512;SDS011;64090;49.770;18.760;2023-02-18T13:48:28;4.90;;;3.10;;
75512;SDS011;64090;49.770;18.760;2023-02-18T13:51:43;11.10;;;6.80;;
75512;SDS011;64090;49.770;18.760;2023-02-18T13:54:49;7.10;;;5.10;;
75512;SDS011;64090;49.770;18.760;2023-02-18T13:57:53;8.60;;;4.80;;
75512;SDS011;64090;49.770;18.760;2023-02-18T14:01:32;4.10;;;2.50;;
75512;SDS011;64090;49.770;18.760;2023-02-18T14:04:47;5.80;;;3.30;;
75512;SDS011;64090;49.770;18.760;2023-02-18T14:17:28;4.10;;;2.30;;
75512;SDS011;64090;49.770;18.760;2023-02-18T14:23:40;4.40;;;2.90;;
75512;SDS011;64090;49.770;18.760;2023-02-18T14:26:46;3.90;;;3.20;;
75512;SDS011;64090;49.770;18.760;2023-02-18T14:29:50;4.70;;;2.60;;
75512;SDS011;64090;49.770;18.760;2023-02-18T14:32:55;4.30;;;2.10;;
75512;SDS011;64090;49.770;18.760;2023-02-18T14:52:36;3.30;;;1.70;;
75512;SDS011;64090;49.770;18.760;2023-02-18T14:55:50;3.00;;;1.70;;
75512;SDS011;64090;49.770;18.760;2023-02-18T14:59:09;3.80;;;1.80;;
75512;SDS011;64090;49.770;18.760;2023-02-18T15:02:37;3.30;;;2.40;;
75512;SDS011;64090;49.770;18.760;2023-02-18T15:05:42;3.10;;;2.20;;
75512;SDS011;64090;49.770;18.760;2023-02-18T15:08:46;4.50;;;3.00;;
75512;SDS011;64090;49.770;18.760;2023-02-18T15:15:06;4.00;;;3.30;;
75512;SDS011;64090;49.770;18.760;2023-02-18T15:18:31;3.60;;;2.10;;
75512;SDS011;64090;49.770;18.760;2023-02-18T15:21:45;4.90;;;3.80;;
75512;SDS011;64090;49.770;18.760;2023-02-18T15:24:51;3.20;;;2.60;;
75512;SDS011;64090;49.770;18.760;2023-02-18T15:27:56;4.10;;;3.50;;
75512;SDS011;64090;49.770;18.760;2023-02-18T15:32:25;4.10;;;3.40;;
75512;SDS011;64090;49.770;18.760;2023-02-18T15:35:33;3.00;;;2.30;;
75512;SDS011;64090;49.770;18.760;2023-02-18T15:38:36;7.70;;;5.00;;
75512;SDS011;64090;49.770;18.760;2023-02-18T15:41:43;3.20;;;2.10;;
75512;SDS011;64090;49.770;18.760;2023-02-18T15:44:47;4.60;;;4.10;;
75512;SDS011;64090;49.770;18.760;2023-02-18T15:50:57;2.80;;;2.30;;
75512;SDS011;64090;49.770;18.760;2023-02-18T15:54:19;3.90;;;1.80;;
75512;SDS011;64090;49.770;18.760;2023-02-18T15:57:25;4.40;;;3.70;;
75512;SDS011;64090;49.770;18.760;2023-02-18T16:00:32;4.30;;;3.30;;
75512;SDS011;64090;49.770;18.760;2023-02-18T16:03:44;7.20;;;4.70;;
75512;SDS011;64090;49.770;18.760;2023-02-18T16:06:49;7.60;;;5.00;;
75512;SDS011;64090;49.770;18.760;2023-02-18T16:10:39;3.70;;;2.20;;
75512;SDS011;64090;49.770;18.760;2023-02-18T16:13:23;4.60;;;3.20;;
75512;SDS011;64090;49.770;18.760;2023-02-18T16:16:29;5.30;;;3.30;;
75512;SDS011;64090;49.770;18.760;2023-02-18T16:19:38;5.60;;;3.90;;
75512;SDS011;64090;49.770;18.760;2023-02-18T16:23:11;4.30;;;3.70;;
75512;SDS011;64090;49.770;18.760;2023-02-18T16:26:20;4.90;;;3.40;;
75512;SDS011;64090;49.770;18.760;2023-02-18T16:29:35;5.40;;;3.70;;
75512;SDS011;64090;49.770;18.760;2023-02-18T16:32:42;3.50;;;2.60;;
75512;SDS011;64090;49.770;18.760;2023-02-18T16:35:46;5.40;;;3.70;;
75512;SDS011;64090;49.770;18.760;2023-02-18T16:38:52;6.90;;;5.10;;
75512;SDS011;64090;49.770;18.760;2023-02-18T16:41:55;6.00;;;4.60;;
75512;SDS011;64090;49.770;18.760;2023-02-18T16:44:58;5.20;;;4.20;;
75512;SDS011;64090;49.770;18.760;2023-02-18T16:48:01;5.50;;;3.90;;
75512;SDS011;64090;49.770;18.760;2023-02-18T16:51:08;6.10;;;5.20;;
75512;SDS011;64090;49.770;18.760;2023-02-18T16:54:15;10.60;;;6.00;;
75512;SDS011;64090;49.770;18.760;2023-02-18T16:57:18;11.00;;;6.00;;
75512;SDS011;64090;49.770;18.760;2023-02-18T17:00:22;8.40;;;4.70;;
75512;SDS011;64090;49.770;18.760;2023-02-18T17:03:26;11.60;;;5.50;;
75512;SDS011;64090;49.770;18.760;2023-02-18T17:06:29;15.40;;;8.20;;
75512;SDS011;64090;49.770;18.760;2023-02-18T17:09:32;10.00;;;5.30;;
75512;SDS011;64090;49.770;18.760;2023-02-18T17:12:35;17.80;;;8.50;;
75512;SDS011;64090;49.770;18.760;2023-02-18T17:15:44;21.00;;;10.30;;
75512;SDS011;64090;49.770;18.760;2023-02-18T17:18:49;12.90;;;7.40;;
75512;SDS011;64090;49.770;18.760;2023-02-18T17:21:52;10.70;;;7.30;;
75512;SDS011;64090;49.770;18.760;2023-02-18T17:25:20;11.70;;;7.60;;
75512;SDS011;64090;49.770;18.760;2023-02-18T17:28:26;12.40;;;7.90;;
75512;SDS011;64090;49.770;18.760;2023-02-18T17:31:30;11.30;;;7.40;;
75512;SDS011;64090;49.770;18.760;2023-02-18T17:34:39;10.30;;;7.00;;
75512;SDS011;64090;49.770;18.760;2023-02-18T17:37:42;7.50;;;5.50;;
75512;SDS011;64090;49.770;18.760;2023-02-18T17:40:45;7.80;;;6.50;;
75512;SDS011;64090;49.770;18.760;2023-02-18T17:43:51;6.60;;;4.40;;
75512;SDS011;64090;49.770;18.760;2023-02-18T17:46:54;8.70;;;5.90;;
75512;SDS011;64090;49.770;18.760;2023-02-18T17:49:57;9.50;;;7.70;;
75512;SDS011;64090;49.770;18.760;2023-02-18T17:53:00;7.60;;;5.50;;
75512;SDS011;64090;49.770;18.760;2023-02-18T17:56:04;5.20;;;3.90;;
75512;SDS011;64090;49.770;18.760;2023-02-18T17:59:07;6.50;;;4.60;;
75512;SDS011;64090;49.770;18.760;2023-02-18T18:02:23;5.90;;;3.60;;
75512;SDS011;64090;49.770;18.760;2023-02-18T18:08:34;8.50;;;4.80;;
75512;SDS011;64090;49.770;18.760;2023-02-18T18:11:37;5.70;;;4.00;;
75512;SDS011;64090;49.770;18.760;2023-02-18T18:14:40;5.70;;;4.60;;
75512;SDS011;64090;49.770;18.760;2023-02-18T18:17:43;10.70;;;6.30;;
75512;SDS011;64090;49.770;18.760;2023-02-18T18:20:47;8.50;;;5.00;;
75512;SDS011;64090;49.770;18.760;2023-02-18T18:23:53;8.50;;;5.50;;
75512;SDS011;64090;49.770;18.760;2023-02-18T18:26:56;6.00;;;4.00;;
75512;SDS011;64090;49.770;18.760;2023-02-18T18:29:59;8.10;;;4.90;;
75512;SDS011;64090;49.770;18.760;2023-02-18T18:33:02;8.40;;;4.30;;
75512;SDS011;64090;49.770;18.760;2023-02-18T18:36:08;8.90;;;5.00;;
75512;SDS011;64090;49.770;18.760;2023-02-18T18:39:11;8.20;;;5.50;;
75512;SDS011;64090;49.770;18.760;2023-02-18T18:42:14;8.10;;;5.00;;
75512;SDS011;64090;49.770;18.760;2023-02-18T18:45:22;7.30;;;4.70;;
75512;SDS011;64090;49.770;18.760;2023-02-18T18:48:29;7.20;;;4.80;;
75512;SDS011;64090;49.770;18.760;2023-02-18T18:51:31;6.00;;;3.50;;
75512;SDS011;64090;49.770;18.760;2023-02-18T18:54:35;8.30;;;4.70;;
75512;SDS011;64090;49.770;18.760;2023-02-18T18:57:37;6.40;;;4.10;;
75512;SDS011;64090;49.770;18.760;2023-02-18T19:00:41;5.40;;;4.10;;
75512;SDS011;64090;49.770;18.760;2023-02-18T19:03:45;5.00;;;4.40;;
75512;SDS011;64090;49.770;18.760;2023-02-18T19:06:49;4.40;;;3.50;;
75512;SDS011;64090;49.770;18.760;2023-02-18T19:09:52;7.10;;;3.80;;
75512;SDS011;64090;49.770;18.760;2023-02-18T19:13:05;6.50;;;3.90;;
75512;SDS011;64090;49.770;18.760;2023-02-18T19:19:21;4.90;;;2.90;;
75512;SDS011;64090;49.770;18.760;2023-02-18T19:22:26;4.80;;;2.90;;
75512;SDS011;64090;49.770;18.760;2023-02-18T19:25:29;3.70;;;3.20;;
75512;SDS011;64090;49.770;18.760;2023-02-18T19:28:33;4.20;;;3.40;;
75512;SDS011;64090;49.770;18.760;2023-02-18T19:31:36;6.40;;;5.30;;
75512;SDS011;64090;49.770;18.760;2023-02-18T19:34:39;6.00;;;4.00;;
75512;SDS011;64090;49.770;18.760;2023-02-18T19:37:42;4.70;;;4.20;;
75512;SDS011;64090;49.770;18.760;2023-02-18T19:40:44;5.10;;;4.00;;
75512;SDS011;64090;49.770;18.760;2023-02-18T19:43:48;6.50;;;4.80;;
75512;SDS011;64090;49.770;18.760;2023-02-18T19:46:52;5.00;;;3.20;;
75512;SDS011;64090;49.770;18.760;2023-02-18T19:49:56;6.50;;;4.50;;
75512;SDS011;64090;49.770;18.760;2023-02-18T19:53:01;5.10;;;3.70;;
75512;SDS011;64090;49.770;18.760;2023-02-18T19:56:04;5.50;;;3.50;;
75512;SDS011;64090;49.770;18.760;2023-02-18T19:59:08;4.60;;;3.30;;
75512;SDS011;64090;49.770;18.760;2023-02-18T20:02:16;4.30;;;3.20;;
75512;SDS011;64090;49.770;18.760;2023-02-18T20:05:22;3.30;;;2.40;;
75512;SDS011;64090;49.770;18.760;2023-02-18T20:08:25;5.60;;;4.20;;
75512;SDS011;64090;49.770;18.760;2023-02-18T20:11:31;4.10;;;2.80;;
75512;SDS011;64090;49.770;18.760;2023-02-18T20:14:34;3.30;;;2.50;;
75512;SDS011;64090;49.770;18.760;2023-02-18T20:17:38;5.50;;;4.00;;
75512;SDS011;64090;49.770;18.760;2023-02-18T20:21:52;3.10;;;2.40;;
75512;SDS011;64090;49.770;18.760;2023-02-18T20:26:13;3.30;;;2.30;;
75512;SDS011;64090;49.770;18.760;2023-02-18T20:29:23;3.10;;;2.20;;
75512;SDS011;64090;49.770;18.760;2023-02-18T20:32:27;4.20;;;2.90;;
75512;SDS011;64090;49.770;18.760;2023-02-18T20:35:30;4.20;;;2.50;;
75512;SDS011;64090;49.770;18.760;2023-02-18T20:38:33;3.40;;;2.70;;
75512;SDS011;64090;49.770;18.760;2023-02-18T20:41:37;3.40;;;2.00;;
75512;SDS011;64090;49.770;18.760;2023-02-18T20:44:40;3.40;;;2.70;;
75512;SDS011;64090;49.770;18.760;2023-02-18T20:47:43;4.60;;;3.20;;
75512;SDS011;64090;49.770;18.760;2023-02-18T20:50:47;4.90;;;3.20;;
75512;SDS011;64090;49.770;18.760;2023-02-18T20:53:50;4.60;;;2.70;;
75512;SDS011;64090;49.770;18.760;2023-02-18T20:56:53;4.80;;;2.70;;
75512;SDS011;64090;49.770;18.760;2023-02-18T20:59:56;4.20;;;3.40;;
75512;SDS011;64090;49.770;18.760;2023-02-18T21:02:59;3.20;;;2.20;;
75512;SDS011;64090;49.770;18.760;2023-02-18T21:06:04;3.30;;;2.50;;
75512;SDS011;64090;49.770;18.760;2023-02-18T21:12:11;3.80;;;2.10;;
75512;SDS011;64090;49.770;18.760;2023-02-18T21:15:14;3.30;;;1.80;;
75512;SDS011;64090;49.770;18.760;2023-02-18T21:18:17;4.40;;;2.70;;
75512;SDS011;64090;49.770;18.760;2023-02-18T21:21:20;3.70;;;2.40;;